createdAt,value
2023-04-26T00:02:02.231Z,2.75
2023-04-26T00:04:29.470Z,2.80
2023-04-26T00:06:57.546Z,2.90
2023-04-26T00:09:24.556Z,2.85
2023-04-26T00:11:51.858Z,3.65
2023-04-26T00:14:18.975Z,3.17
2023-04-26T00:16:46.463Z,2.53
2023-04-26T00:19:13.977Z,2.63
2023-04-26T00:21:40.978Z,3.60
2023-04-26T00:24:09.042Z,2.75
2023-04-26T00:26:36.222Z,3.10
2023-04-26T00:29:04.843Z,2.35
2023-04-26T00:31:31.837Z,2.50
2023-04-26T00:33:58.972Z,3.10
2023-04-26T00:36:26.562Z,2.97
2023-04-26T00:38:53.843Z,2.95
2023-04-26T00:41:22.202Z,3.25
2023-04-26T00:43:49.544Z,3.60
2023-04-26T00:46:17.119Z,2.63
2023-04-26T00:48:44.678Z,2.83
2023-04-26T00:51:13.433Z,2.53
2023-04-26T00:53:41.323Z,3.38
2023-04-26T00:56:10.853Z,3.50
2023-04-26T00:58:39.222Z,3.08
2023-04-26T01:01:07.750Z,2.42
2023-04-26T01:03:35.101Z,3.40
2023-04-26T01:06:03.590Z,3.45
2023-04-26T01:08:30.711Z,2.38
2023-04-26T01:10:59.301Z,3.10
2023-04-26T01:13:26.756Z,3.47
2023-04-26T01:15:55.832Z,3.53
2023-04-26T01:18:22.842Z,3.63
2023-04-26T01:20:52.260Z,3.65
2023-04-26T01:23:20.484Z,3.38
2023-04-26T01:25:48.434Z,3.50
2023-04-26T01:28:15.635Z,2.97
2023-04-26T01:30:43.685Z,2.58
2023-04-26T01:33:11.156Z,3.67
2023-04-26T01:35:38.297Z,3.38
2023-04-26T01:38:05.114Z,2.40
2023-04-26T01:40:32.568Z,2.28
2023-04-26T01:42:59.876Z,2.63
2023-04-26T01:45:27.785Z,3.20
2023-04-26T01:47:54.859Z,3.20
2023-04-26T01:50:21.738Z,3.28
2023-04-26T01:52:48.735Z,2.58
2023-04-26T01:55:16.155Z,2.60
2023-04-26T01:57:45.830Z,3.67
2023-04-26T02:00:13.165Z,3.30
2023-04-26T02:02:40.894Z,3.33
2023-04-26T02:05:12.391Z,3.10
2023-04-26T02:07:39.595Z,3.03
2023-04-26T02:10:07.667Z,3.58
2023-04-26T02:12:35.131Z,3.45
2023-04-26T02:15:06.373Z,2.40
2023-04-26T02:17:33.951Z,3.10
2023-04-26T02:20:01.112Z,2.78
2023-04-26T02:22:28.095Z,2.90
2023-04-26T02:24:55.514Z,2.78
2023-04-26T02:27:22.750Z,2.35
2023-04-26T02:29:49.970Z,2.28
2023-04-26T02:32:16.870Z,2.67
2023-04-26T02:34:44.793Z,2.53
2023-04-26T02:37:11.974Z,3.38
2023-04-26T02:39:39.371Z,3.00
2023-04-26T02:42:11.073Z,2.75
2023-04-26T02:44:40.077Z,2.80
2023-04-26T02:47:07.291Z,2.20
2023-04-26T02:49:34.786Z,2.47
2023-04-26T02:52:01.820Z,2.55
2023-04-26T02:54:28.823Z,2.78
2023-04-26T02:56:55.785Z,3.10
2023-04-26T02:59:22.802Z,3.00
2023-04-26T03:01:50.052Z,3.13
2023-04-26T03:04:17.969Z,3.00
2023-04-26T03:06:45.111Z,3.13
2023-04-26T03:09:12.228Z,3.22
2023-04-26T03:11:39.305Z,2.20
2023-04-26T03:14:06.838Z,3.42
2023-04-26T03:16:43.028Z,2.80
2023-04-26T03:19:10.309Z,3.03
2023-04-26T03:21:37.518Z,3.05
2023-04-26T03:24:04.948Z,2.30
2023-04-26T03:26:31.904Z,3.47
2023-04-26T03:28:59.265Z,3.10
2023-04-26T03:31:26.769Z,2.85
2023-04-26T03:33:54.008Z,3.03
2023-04-26T03:36:21.322Z,3.83
2023-04-26T03:38:48.505Z,3.28
2023-04-26T03:41:15.699Z,2.83
2023-04-26T03:43:42.555Z,2.70
2023-04-26T03:46:09.458Z,2.90
2023-04-26T03:48:36.616Z,3.00
2023-04-26T03:51:03.876Z,2.75
2023-04-26T03:53:31.133Z,3.40
2023-04-26T03:56:01.342Z,3.38
2023-04-26T03:58:29.104Z,3.30
2023-04-26T04:00:58.856Z,4.10
2023-04-26T04:03:25.999Z,3.78
2023-04-26T04:05:53.396Z,3.63
2023-04-26T04:08:20.459Z,2.42
2023-04-26T04:10:47.780Z,2.60
2023-04-26T04:13:14.805Z,2.90
2023-04-26T04:15:42.056Z,2.90
2023-04-26T04:18:09.254Z,3.08
2023-04-26T04:20:36.430Z,2.65
2023-04-26T04:23:06.421Z,3.00
2023-04-26T04:25:35.150Z,2.80
2023-04-26T04:28:05.774Z,2.58
2023-04-26T04:30:32.796Z,2.22
2023-04-26T04:33:00.442Z,3.75
2023-04-26T04:35:29.170Z,5.40
2023-04-26T04:37:59.192Z,4.07
2023-04-26T04:40:27.673Z,4.93
2023-04-26T04:42:55.667Z,4.78
2023-04-26T04:45:22.840Z,5.18
2023-04-26T04:47:49.815Z,12.45
2023-04-26T04:50:17.061Z,10.48
2023-04-26T04:52:44.073Z,10.07
2023-04-26T04:55:11.126Z,15.65
2023-04-26T04:57:40.639Z,13.20
2023-04-26T05:00:10.652Z,11.10
2023-04-26T05:02:38.429Z,8.38
2023-04-26T05:05:06.382Z,8.57
2023-04-26T05:07:34.288Z,7.78
2023-04-26T05:10:02.204Z,6.72
2023-04-26T05:12:30.539Z,7.18
2023-04-26T05:14:57.492Z,9.10
2023-04-26T05:17:24.964Z,9.95
2023-04-26T05:19:51.962Z,11.68
2023-04-26T05:22:21.401Z,10.48
2023-04-26T05:24:49.954Z,10.00
2023-04-26T05:27:16.930Z,9.55
2023-04-26T05:29:44.488Z,10.45
2023-04-26T05:32:11.421Z,10.20
2023-04-26T05:34:39.467Z,8.63
2023-04-26T05:37:07.146Z,7.85
2023-04-26T05:39:34.598Z,6.82
2023-04-26T05:42:03.528Z,8.13
2023-04-26T05:44:30.799Z,6.40
2023-04-26T05:46:57.850Z,6.75
2023-04-26T05:49:25.226Z,6.50
2023-04-26T05:51:52.204Z,6.15
2023-04-26T05:54:19.237Z,6.47
2023-04-26T05:56:46.142Z,5.60
2023-04-26T05:59:14.228Z,7.38
2023-04-26T06:01:41.167Z,6.65
2023-04-26T06:04:08.749Z,5.68
2023-04-26T06:06:36.124Z,5.63
2023-04-26T06:09:03.282Z,5.38
2023-04-26T06:11:30.253Z,6.10
2023-04-26T06:13:57.269Z,6.05
2023-04-26T06:16:24.384Z,5.28
2023-04-26T06:18:51.280Z,5.25
2023-04-26T06:21:18.577Z,5.95
2023-04-26T06:23:46.802Z,5.07
2023-04-26T06:26:13.891Z,4.65
2023-04-26T06:28:42.308Z,3.47
2023-04-26T06:31:12.513Z,2.97
2023-04-26T06:33:40.275Z,2.80
2023-04-26T06:36:12.533Z,3.13
2023-04-26T06:38:39.565Z,3.97
2023-04-26T06:41:07.147Z,3.33
2023-04-26T06:43:34.180Z,4.30
2023-04-26T06:46:01.091Z,3.25
2023-04-26T06:48:28.061Z,3.53
2023-04-26T06:50:54.919Z,2.70
2023-04-26T06:53:23.144Z,3.17
2023-04-26T06:55:50.469Z,2.88
2023-04-26T06:58:17.536Z,2.92
2023-04-26T07:00:44.841Z,2.72
2023-04-26T07:03:11.946Z,2.45
2023-04-26T07:05:41.084Z,2.83
2023-04-26T07:08:08.216Z,3.05
2023-04-26T07:10:35.108Z,3.13
2023-04-26T07:13:02.051Z,3.42
2023-04-26T07:15:32.888Z,2.70
2023-04-26T07:18:00.330Z,3.92
2023-04-26T07:20:27.201Z,3.40
2023-04-26T07:22:54.151Z,3.40
2023-04-26T07:25:21.225Z,2.90
2023-04-26T07:27:48.235Z,3.10
2023-04-26T07:30:15.374Z,3.05
2023-04-26T07:32:45.172Z,3.55
2023-04-26T07:35:16.473Z,3.45
2023-04-26T07:37:47.695Z,3.42
2023-04-26T07:40:15.477Z,3.25
2023-04-26T07:42:42.696Z,2.65
2023-04-26T07:45:10.704Z,2.83
2023-04-26T07:47:37.772Z,3.47
2023-04-26T07:50:05.867Z,3.15
2023-04-26T07:52:33.734Z,3.45
2023-04-26T07:55:00.763Z,2.42
2023-04-26T07:57:27.843Z,2.13
2023-04-26T07:59:57.751Z,2.78
2023-04-26T08:02:36.861Z,2.80
2023-04-26T08:05:10.471Z,3.03
2023-04-26T08:07:37.759Z,2.22
2023-04-26T08:10:05.182Z,2.78
2023-04-26T08:12:33.807Z,3.30
2023-04-26T08:15:01.919Z,2.50
2023-04-26T08:17:29.015Z,2.58
2023-04-26T08:19:56.444Z,3.47
2023-04-26T08:22:24.361Z,2.58
2023-04-26T08:24:56.380Z,2.60
2023-04-26T08:27:23.572Z,2.47
2023-04-26T08:29:50.859Z,2.58
2023-04-26T08:32:17.732Z,2.53
2023-04-26T08:34:45.042Z,2.63
2023-04-26T08:37:12.690Z,2.10
2023-04-26T08:39:39.732Z,2.03
2023-04-26T08:42:17.946Z,1.77
2023-04-26T08:44:46.370Z,2.17
2023-04-26T08:47:24.017Z,1.73
2023-04-26T08:50:03.831Z,2.00
2023-04-26T08:52:32.495Z,1.80
2023-04-26T08:55:00.883Z,1.90
2023-04-26T08:57:30.269Z,2.08
2023-04-26T08:59:58.850Z,1.90
2023-04-26T09:02:26.014Z,1.85
2023-04-26T09:04:53.285Z,1.85
2023-04-26T09:07:32.460Z,1.90
2023-04-26T09:10:01.120Z,2.00
2023-04-26T09:12:28.854Z,2.20
2023-04-26T09:14:56.664Z,2.30
2023-04-26T09:17:33.313Z,1.63
2023-04-26T09:20:02.242Z,2.22
2023-04-26T09:22:37.694Z,2.00
2023-04-26T09:25:07.272Z,2.15
2023-04-26T09:27:41.280Z,1.70
2023-04-26T09:30:19.748Z,1.88
2023-04-26T09:33:13.080Z,2.17
2023-04-26T09:35:46.978Z,2.10
2023-04-26T09:38:18.798Z,1.98
2023-04-26T09:40:48.644Z,2.23
2023-04-26T09:43:21.311Z,2.10
2023-04-26T09:48:31.061Z,2.08
2023-04-26T09:51:09.127Z,1.33
2023-04-26T09:53:42.753Z,1.83
2023-04-26T09:56:14.806Z,2.25
2023-04-26T09:58:47.931Z,2.08
2023-04-26T10:01:18.233Z,2.30
2023-04-26T10:03:46.860Z,1.90
2023-04-26T10:06:14.808Z,1.92
2023-04-26T10:08:42.467Z,1.80
2023-04-26T10:11:12.991Z,1.83
2023-04-26T10:13:44.827Z,1.75
2023-04-26T10:16:11.970Z,1.90
2023-04-26T10:18:40.714Z,1.60
2023-04-26T10:21:28.521Z,1.85
2023-04-26T10:23:59.512Z,2.30
2023-04-26T10:26:53.698Z,1.90
2023-04-26T10:29:22.392Z,1.92
2023-04-26T10:32:04.834Z,1.70
2023-04-26T10:37:17.570Z,1.90
2023-04-26T10:39:49.139Z,1.38
2023-04-26T10:42:25.598Z,2.15
2023-04-26T10:44:54.696Z,1.70
2023-04-26T10:47:42.017Z,2.35
2023-04-26T10:50:12.648Z,2.03
2023-04-26T10:53:03.855Z,1.77
2023-04-26T10:55:42.634Z,1.80
2023-04-26T10:58:35.748Z,2.20
2023-04-26T11:01:13.834Z,1.58
2023-04-26T11:04:06.240Z,1.85
2023-04-26T11:06:58.050Z,1.83
2023-04-26T11:09:41.516Z,1.73
2023-04-26T11:12:16.775Z,1.63
2023-04-26T11:14:46.572Z,1.70
2023-04-26T11:17:14.024Z,1.95
2023-04-26T11:19:50.182Z,2.20
2023-04-26T11:22:22.814Z,2.00
2023-04-26T11:24:50.613Z,1.73
2023-04-26T11:27:17.579Z,1.90
2023-04-26T11:29:45.777Z,2.22
2023-04-26T11:32:14.422Z,2.25
2023-04-26T11:34:41.844Z,1.55
2023-04-26T11:37:09.254Z,2.17
2023-04-26T11:39:37.628Z,1.73
2023-04-26T11:42:12.434Z,1.55
2023-04-26T11:44:41.280Z,2.00
2023-04-26T11:47:09.676Z,1.60
2023-04-26T11:49:37.956Z,1.70
2023-04-26T11:52:09.054Z,1.60
2023-04-26T11:54:37.867Z,1.40
2023-04-26T11:57:17.496Z,1.58
2023-04-26T11:59:45.989Z,1.60
2023-04-26T12:02:13.233Z,1.40
2023-04-26T12:04:41.662Z,1.30
2023-04-26T12:07:09.614Z,1.77
2023-04-26T12:09:45.857Z,1.73
2023-04-26T12:12:12.925Z,1.90
2023-04-26T12:14:40.978Z,1.70
2023-04-26T12:17:08.790Z,1.75
2023-04-26T12:19:41.041Z,1.88
2023-04-26T12:22:12.373Z,1.33
2023-04-26T12:24:40.010Z,1.35
2023-04-26T12:27:07.981Z,1.42
2023-04-26T12:29:35.775Z,1.65
2023-04-26T12:32:03.593Z,1.35
2023-04-26T12:34:31.105Z,1.52
2023-04-26T12:36:58.270Z,1.88
2023-04-26T12:39:25.471Z,1.73
2023-04-26T12:41:52.500Z,1.63
2023-04-26T12:44:22.204Z,1.33
2023-04-26T12:46:50.043Z,1.20
2023-04-26T12:49:17.094Z,1.60
2023-04-26T12:51:44.359Z,1.48
2023-04-26T12:54:11.249Z,1.10
2023-04-26T12:56:43.683Z,1.65
2023-04-26T12:59:11.115Z,1.30
2023-04-26T13:01:38.459Z,1.10
2023-04-26T13:04:06.709Z,1.00
2023-04-26T13:06:34.805Z,1.48
2023-04-26T13:09:03.100Z,1.38
2023-04-26T13:11:29.982Z,1.63
2023-04-26T13:13:57.126Z,1.60
2023-04-26T13:16:24.726Z,1.90
2023-04-26T13:18:51.819Z,1.13
2023-04-26T13:21:18.899Z,1.40
2023-04-26T13:23:48.253Z,1.60
2023-04-26T13:26:20.342Z,1.38
2023-04-26T13:31:17.358Z,1.70
2023-04-26T13:33:47.700Z,1.65
2023-04-26T13:36:16.017Z,1.65
2023-04-26T13:38:44.870Z,1.40
2023-04-26T13:41:11.977Z,1.70
2023-04-26T13:43:38.950Z,1.70
2023-04-26T13:46:06.111Z,1.20
2023-04-26T13:48:33.378Z,1.42
2023-04-26T13:51:00.541Z,1.63
2023-04-26T13:53:28.425Z,1.30
2023-04-26T13:55:55.601Z,1.45
2023-04-26T13:58:22.560Z,1.38
2023-04-26T14:00:49.673Z,1.40
2023-04-26T14:03:17.209Z,1.23
2023-04-26T14:05:44.319Z,1.08
2023-04-26T14:08:12.861Z,1.58
2023-04-26T14:10:42.329Z,1.67
2023-04-26T14:13:09.298Z,1.52
2023-04-26T14:15:37.121Z,1.17
2023-04-26T14:18:04.417Z,1.38
2023-04-26T14:20:32.047Z,1.50
2023-04-26T14:22:59.012Z,1.70
2023-04-26T14:25:27.380Z,1.40
2023-04-26T14:27:54.816Z,1.20
2023-04-26T14:30:21.865Z,1.20
2023-04-26T14:32:48.918Z,1.27
2023-04-26T14:35:16.109Z,1.30
2023-04-26T14:37:43.104Z,1.73
2023-04-26T14:40:11.673Z,1.48
2023-04-26T14:42:45.649Z,1.15
2023-04-26T14:45:13.284Z,1.10
2023-04-26T14:47:40.610Z,1.30
2023-04-26T14:50:10.152Z,1.23
2023-04-26T14:52:37.682Z,1.00
2023-04-26T14:55:05.625Z,1.10
2023-04-26T14:57:32.942Z,1.15
2023-04-26T15:00:07.287Z,1.10
2023-04-26T15:02:34.484Z,1.00
2023-04-26T15:05:08.286Z,0.90
2023-04-26T15:07:35.477Z,1.10
2023-04-26T15:10:02.873Z,1.17
2023-04-26T15:12:29.743Z,0.95
2023-04-26T15:14:57.213Z,1.20
2023-04-26T15:17:24.371Z,1.10
2023-04-26T15:19:51.694Z,1.08
2023-04-26T15:22:18.862Z,1.13
2023-04-26T15:24:45.866Z,1.00
2023-04-26T15:27:13.224Z,1.20
2023-04-26T15:29:40.129Z,1.17
2023-04-26T15:32:07.196Z,1.00
2023-04-26T15:34:43.270Z,1.00
2023-04-26T15:37:10.622Z,1.20
2023-04-26T15:39:38.240Z,0.95
2023-04-26T15:42:06.047Z,1.10
2023-04-26T15:44:34.044Z,1.10
2023-04-26T15:47:01.668Z,0.88
2023-04-26T15:49:29.961Z,0.80
2023-04-26T15:51:58.144Z,0.90
2023-04-26T15:54:26.433Z,1.02
2023-04-26T15:56:53.607Z,0.80
2023-04-26T15:59:21.062Z,1.20
2023-04-26T16:01:47.996Z,0.90
2023-04-26T16:04:16.137Z,1.10
2023-04-26T16:06:43.139Z,1.00
2023-04-26T16:09:24.828Z,1.20
2023-04-26T16:11:52.887Z,1.30
2023-04-26T16:14:19.936Z,1.10
2023-04-26T16:16:47.010Z,0.88
2023-04-26T16:19:14.418Z,1.08
2023-04-26T16:21:42.135Z,1.00
2023-04-26T16:24:12.225Z,1.20
2023-04-26T16:26:39.279Z,1.20
2023-04-26T16:29:09.315Z,1.25
2023-04-26T16:31:36.271Z,1.10
2023-04-26T16:34:03.672Z,1.63
2023-04-26T16:36:31.937Z,1.30
2023-04-26T16:38:59.808Z,1.40
2023-04-26T16:41:27.868Z,1.00
2023-04-26T16:43:58.011Z,1.20
2023-04-26T16:46:24.953Z,1.45
2023-04-26T16:48:52.365Z,1.50
2023-04-26T16:51:19.235Z,1.13
2023-04-26T16:53:46.235Z,1.05
2023-04-26T16:56:13.308Z,1.00
2023-04-26T16:58:40.244Z,1.00
2023-04-26T17:01:07.348Z,1.00
2023-04-26T17:03:34.583Z,1.08
2023-04-26T17:06:01.742Z,1.40
2023-04-26T17:08:31.866Z,0.98
2023-04-26T17:10:59.074Z,1.10
2023-04-26T17:13:29.460Z,0.98
2023-04-26T17:15:57.019Z,1.65
2023-04-26T17:18:23.939Z,1.20
2023-04-26T17:20:53.684Z,1.25
2023-04-26T17:23:20.924Z,1.42
2023-04-26T17:25:48.145Z,0.93
2023-04-26T17:28:15.352Z,1.20
2023-04-26T17:30:42.604Z,1.10
2023-04-26T17:33:09.902Z,1.10
2023-04-26T17:35:36.902Z,1.42
2023-04-26T17:38:03.947Z,1.45
2023-04-26T17:40:31.332Z,2.83
2023-04-26T17:42:58.246Z,1.08
2023-04-26T17:45:25.469Z,0.90
2023-04-26T17:47:52.618Z,1.33
2023-04-26T17:50:21.191Z,1.52
2023-04-26T17:52:48.398Z,1.35
2023-04-26T17:55:15.755Z,1.65
2023-04-26T17:57:42.722Z,1.20
2023-04-26T18:00:10.474Z,1.58
2023-04-26T18:02:38.194Z,1.27
2023-04-26T18:05:08.996Z,1.10
2023-04-26T18:07:36.182Z,1.00
2023-04-26T18:10:04.465Z,0.85
2023-04-26T18:12:32.066Z,1.23
2023-04-26T18:14:59.637Z,1.00
2023-04-26T18:17:26.884Z,0.75
2023-04-26T18:19:53.908Z,1.00
2023-04-26T18:22:21.071Z,1.23
2023-04-26T18:24:48.129Z,1.20
2023-04-26T18:27:15.873Z,1.23
2023-04-26T18:29:43.141Z,1.00
2023-04-26T18:32:10.435Z,1.27
2023-04-26T18:34:37.315Z,1.10
2023-04-26T18:37:05.087Z,1.00
2023-04-26T18:39:32.266Z,0.93
2023-04-26T18:41:59.334Z,1.50
2023-04-26T18:44:26.800Z,1.40
2023-04-26T18:46:56.107Z,1.35
2023-04-26T18:49:23.947Z,1.20
2023-04-26T18:51:51.008Z,1.15
2023-04-26T18:54:17.998Z,1.20
2023-04-26T18:56:45.223Z,0.93
2023-04-26T18:59:12.459Z,1.27
2023-04-26T19:01:39.555Z,1.40
2023-04-26T19:04:08.178Z,1.15
2023-04-26T19:06:35.399Z,1.10
2023-04-26T19:09:02.741Z,1.70
2023-04-26T19:11:32.682Z,1.10
2023-04-26T19:13:59.633Z,1.30
2023-04-26T19:16:27.078Z,1.48
2023-04-26T19:18:54.465Z,2.13
2023-04-26T19:21:22.012Z,1.75
2023-04-26T19:23:49.248Z,1.25
2023-04-26T19:26:16.256Z,1.30
2023-04-26T19:28:43.620Z,1.70
2023-04-26T19:31:10.785Z,1.00
2023-04-26T19:33:38.257Z,1.30
2023-04-26T19:36:05.756Z,1.45
2023-04-26T19:38:33.321Z,1.30
2023-04-26T19:41:01.622Z,1.05
2023-04-26T19:43:28.576Z,1.25
2023-04-26T19:45:55.622Z,1.90
2023-04-26T19:48:29.421Z,1.70
2023-04-26T19:50:56.398Z,1.40
2023-04-26T19:53:23.426Z,2.45
2023-04-26T19:55:51.254Z,14.35
2023-04-26T19:58:20.087Z,36.85
2023-04-26T20:00:47.630Z,12.93
2023-04-26T20:03:15.706Z,6.68
2023-04-26T20:05:42.879Z,6.20
2023-04-26T20:08:10.375Z,6.07
2023-04-26T20:10:38.026Z,3.60
2023-04-26T20:13:05.076Z,3.40
2023-04-26T20:15:33.852Z,3.97
2023-04-26T20:18:02.546Z,3.10
2023-04-26T20:20:31.988Z,3.83
2023-04-26T20:22:59.035Z,4.00
2023-04-26T20:25:26.206Z,3.67
2023-04-26T20:27:54.241Z,3.95
2023-04-26T20:30:21.395Z,4.38
2023-04-26T20:32:48.989Z,3.40
2023-04-26T20:35:16.130Z,2.78
2023-04-26T20:37:43.200Z,2.88
2023-04-26T20:40:11.222Z,3.25
2023-04-26T20:42:38.502Z,2.67
2023-04-26T20:45:06.769Z,4.10
2023-04-26T20:47:33.802Z,4.57
2023-04-26T20:50:03.325Z,4.07
2023-04-26T20:52:30.729Z,4.30
2023-04-26T20:54:57.788Z,3.83
2023-04-26T20:57:26.379Z,4.25
2023-04-26T20:59:53.736Z,3.60
2023-04-26T21:02:21.376Z,3.95
2023-04-26T21:04:48.598Z,4.30
2023-04-26T21:07:15.745Z,4.75
2023-04-26T21:09:42.974Z,3.80
2023-04-26T21:12:09.972Z,4.60
2023-04-26T21:14:37.219Z,5.53
2023-04-26T21:17:09.088Z,5.55
2023-04-26T21:19:36.310Z,6.22
2023-04-26T21:22:12.797Z,6.47
2023-04-26T21:24:39.676Z,7.25
2023-04-26T21:27:06.589Z,8.50
2023-04-26T21:29:33.420Z,7.55
2023-04-26T21:32:00.339Z,5.30
2023-04-26T21:34:27.956Z,3.83
2023-04-26T21:36:55.030Z,5.03
2023-04-26T21:39:21.954Z,4.75
2023-04-26T21:41:48.845Z,5.57
2023-04-26T21:44:15.803Z,3.20
2023-04-26T21:46:42.685Z,2.15
2023-04-26T21:49:12.880Z,2.72
2023-04-26T21:51:39.800Z,4.40
2023-04-26T21:54:07.124Z,8.93
2023-04-26T21:56:34.382Z,6.55
2023-04-26T21:59:02.705Z,5.45
2023-04-26T22:01:30.107Z,4.75
2023-04-26T22:03:57.234Z,4.65
2023-04-26T22:06:24.262Z,3.40
2023-04-26T22:08:51.447Z,4.35
2023-04-26T22:11:19.344Z,3.70
2023-04-26T22:13:46.303Z,5.57
2023-04-26T22:16:13.711Z,5.20
2023-04-26T22:18:40.889Z,4.43
2023-04-26T22:21:07.764Z,4.07
2023-04-26T22:23:34.963Z,4.82
2023-04-26T22:26:02.000Z,4.80
2023-04-26T22:28:28.990Z,3.63
2023-04-26T22:30:56.132Z,3.05
2023-04-26T22:33:23.161Z,3.17
2023-04-26T22:35:50.410Z,2.95
2023-04-26T22:38:20.551Z,3.13
2023-04-26T22:40:47.822Z,2.88
2023-04-26T22:43:14.723Z,2.97
2023-04-26T22:45:42.012Z,3.47
2023-04-26T22:48:09.039Z,3.72
2023-04-26T22:50:36.089Z,4.07
2023-04-26T22:53:03.796Z,4.55
2023-04-26T22:55:33.267Z,3.95
2023-04-26T22:58:00.232Z,3.92
2023-04-26T23:00:27.117Z,4.25
2023-04-26T23:02:55.153Z,4.05
2023-04-26T23:05:22.440Z,2.58
2023-04-26T23:07:49.418Z,3.20
2023-04-26T23:10:16.632Z,3.42
2023-04-26T23:12:43.749Z,3.45
2023-04-26T23:15:11.684Z,4.38
2023-04-26T23:17:38.985Z,3.35
2023-04-26T23:20:13.106Z,3.60
2023-04-26T23:22:42.809Z,3.90
2023-04-26T23:25:10.398Z,3.65
2023-04-26T23:27:38.241Z,4.28
2023-04-26T23:30:06.513Z,3.45
2023-04-26T23:32:33.638Z,3.50
2023-04-26T23:35:01.382Z,3.20
2023-04-26T23:37:28.374Z,3.33
2023-04-26T23:39:55.235Z,2.78
2023-04-26T23:42:22.172Z,2.80
2023-04-26T23:44:49.125Z,2.80
2023-04-26T23:47:16.130Z,2.20
2023-04-26T23:49:43.339Z,2.83
2023-04-26T23:52:10.951Z,2.92
2023-04-26T23:54:37.808Z,3.22
2023-04-26T23:57:05.881Z,3.65
2023-04-26T23:59:32.807Z,3.30
